createdAt,value
2024-05-09T00:00:56.280Z,12.20
2024-05-09T00:04:20.081Z,12.20
2024-05-09T00:07:44.175Z,12.20
2024-05-09T00:11:10.677Z,12.10
2024-05-09T00:14:34.284Z,12.10
2024-05-09T00:17:58.488Z,11.90
2024-05-09T00:21:22.270Z,11.80
2024-05-09T00:24:45.633Z,11.90
2024-05-09T00:28:12.187Z,11.90
2024-05-09T00:31:36.084Z,11.90
2024-05-09T00:34:59.851Z,11.80
2024-05-09T00:38:23.664Z,11.80
2024-05-09T00:41:47.385Z,11.80
2024-05-09T00:45:13.945Z,11.80
2024-05-09T00:48:38.088Z,11.80
2024-05-09T00:52:02.533Z,11.80
2024-05-09T00:55:26.537Z,11.80
2024-05-09T00:58:51.422Z,11.70
2024-05-09T01:02:19.028Z,11.70
2024-05-09T01:05:43.298Z,11.70
2024-05-09T01:09:07.285Z,11.70
2024-05-09T01:12:30.705Z,11.70
2024-05-09T01:15:55.544Z,11.70
2024-05-09T01:19:26.568Z,11.70
2024-05-09T01:22:50.904Z,11.60
2024-05-09T01:26:17.008Z,11.60
2024-05-09T01:29:40.894Z,11.50
2024-05-09T01:33:05.380Z,11.50
2024-05-09T01:36:30.306Z,11.40
2024-05-09T01:39:53.737Z,11.40
2024-05-09T01:43:20.343Z,11.40
2024-05-09T01:46:44.349Z,11.20
2024-05-09T01:50:10.915Z,11.20
2024-05-09T01:53:34.994Z,11.20
2024-05-09T01:56:59.019Z,11.20
2024-05-09T02:00:36.805Z,11.20
2024-05-09T02:04:04.448Z,11.10
2024-05-09T02:07:28.581Z,11.00
2024-05-09T02:10:52.718Z,10.90
2024-05-09T02:14:17.069Z,11.00
2024-05-09T02:17:43.558Z,11.00
2024-05-09T02:21:07.857Z,11.00
2024-05-09T02:24:31.658Z,10.90
2024-05-09T02:27:55.172Z,10.90
2024-05-09T02:31:19.059Z,11.00
2024-05-09T02:34:45.205Z,11.00
2024-05-09T02:38:09.175Z,10.80
2024-05-09T02:41:30.495Z,10.70
2024-05-09T02:44:54.391Z,10.80
2024-05-09T02:48:17.863Z,10.80
2024-05-09T02:51:44.195Z,10.80
2024-05-09T02:55:05.857Z,10.80
2024-05-09T02:58:29.404Z,10.80
2024-05-09T03:01:50.261Z,10.80
2024-05-09T03:05:14.277Z,10.80
2024-05-09T03:08:40.498Z,10.80
2024-05-09T03:12:04.542Z,10.70
2024-05-09T03:15:25.774Z,10.60
2024-05-09T03:18:49.752Z,10.50
2024-05-09T03:22:13.605Z,10.60
2024-05-09T03:25:37.281Z,10.50
2024-05-09T03:29:01.114Z,10.60
2024-05-09T03:32:22.208Z,10.60
2024-05-09T03:35:46.810Z,10.50
2024-05-09T03:39:13.111Z,10.60
2024-05-09T03:42:41.711Z,10.50
2024-05-09T03:46:05.284Z,10.40
2024-05-09T03:49:26.402Z,10.50
2024-05-09T03:52:50.282Z,10.50
2024-05-09T03:56:14.240Z,10.60
2024-05-09T03:59:40.861Z,10.60
2024-05-09T04:03:05.875Z,10.60
2024-05-09T04:06:30.749Z,10.60
2024-05-09T04:09:54.041Z,10.70
2024-05-09T04:13:14.878Z,10.70
2024-05-09T04:16:41.301Z,10.70
2024-05-09T04:20:02.436Z,10.70
2024-05-09T04:23:26.294Z,10.80
2024-05-09T04:26:47.617Z,10.80
2024-05-09T04:30:18.937Z,10.80
2024-05-09T04:33:52.824Z,10.90
2024-05-09T04:37:16.528Z,10.90
2024-05-09T04:40:38.039Z,10.90
2024-05-09T04:44:01.781Z,11.00
2024-05-09T04:47:25.871Z,11.00
2024-05-09T04:50:52.361Z,11.00
2024-05-09T04:54:26.339Z,11.10
2024-05-09T04:57:54.921Z,11.20
2024-05-09T05:01:18.734Z,11.30
2024-05-09T05:04:40.175Z,11.30
2024-05-09T05:08:07.014Z,11.40
2024-05-09T05:11:28.619Z,11.60
2024-05-09T05:14:52.549Z,11.70
2024-05-09T05:18:17.537Z,11.80
2024-05-09T05:21:41.514Z,11.90
2024-05-09T05:25:05.760Z,12.00
2024-05-09T05:28:29.433Z,12.20
2024-05-09T05:31:50.299Z,12.50
2024-05-09T05:35:13.992Z,12.80
2024-05-09T05:38:37.925Z,13.10
2024-05-09T05:42:04.275Z,13.60
2024-05-09T05:45:25.692Z,14.10
2024-05-09T05:48:49.574Z,14.70
2024-05-09T05:52:12.366Z,15.20
2024-05-09T05:55:36.291Z,15.70
2024-05-09T05:59:02.396Z,16.10
2024-05-09T06:02:23.800Z,16.70
2024-05-09T06:05:48.222Z,17.10
2024-05-09T06:09:11.774Z,17.60
2024-05-09T06:12:35.662Z,17.90
2024-05-09T06:16:00.710Z,18.40
2024-05-09T06:19:24.341Z,18.40
2024-05-09T06:22:48.072Z,18.60
2024-05-09T06:26:09.676Z,19.00
2024-05-09T06:29:33.740Z,19.20
2024-05-09T06:33:00.329Z,19.70
2024-05-09T06:36:21.819Z,20.10
2024-05-09T06:39:45.260Z,19.90
2024-05-09T06:43:13.425Z,19.70
2024-05-09T06:46:40.056Z,19.40
2024-05-09T06:50:13.102Z,19.00
2024-05-09T06:53:42.397Z,18.60
2024-05-09T06:57:06.312Z,18.10
2024-05-09T07:00:35.289Z,17.60
2024-05-09T07:04:03.066Z,17.30
2024-05-09T07:07:29.474Z,17.40
2024-05-09T07:10:53.323Z,17.50
2024-05-09T07:14:17.059Z,17.60
2024-05-09T07:17:41.519Z,17.70
2024-05-09T07:21:02.912Z,17.80
2024-05-09T07:24:29.314Z,18.00
2024-05-09T07:27:50.249Z,18.10
2024-05-09T07:31:15.145Z,18.10
2024-05-09T07:34:38.964Z,18.00
2024-05-09T07:38:02.930Z,18.10
2024-05-09T07:41:29.606Z,18.00
2024-05-09T07:44:53.277Z,18.20
2024-05-09T07:55:07.651Z,18.70
2024-05-09T07:58:33.702Z,18.70
2024-05-09T08:01:57.676Z,18.70
2024-05-09T08:05:19.133Z,18.80
2024-05-09T08:08:42.881Z,18.90
2024-05-09T08:12:04.055Z,18.90
2024-05-09T08:15:29.908Z,18.90
2024-05-09T08:18:53.994Z,18.70
2024-05-09T08:22:17.943Z,18.70
2024-05-09T08:25:41.556Z,18.80
2024-05-09T08:29:02.709Z,18.90
2024-05-09T08:32:32.252Z,19.00
2024-05-09T08:35:53.295Z,19.10
2024-05-09T08:39:16.733Z,19.00
2024-05-09T08:42:43.269Z,19.10
2024-05-09T08:46:08.464Z,19.10
2024-05-09T08:49:36.485Z,19.20
2024-05-09T08:53:01.224Z,19.30
2024-05-09T08:56:28.075Z,19.50
2024-05-09T08:59:51.410Z,19.80
2024-05-09T09:03:20.369Z,20.00
2024-05-09T09:06:45.049Z,20.10
2024-05-09T09:10:13.014Z,19.90
2024-05-09T09:13:38.991Z,19.80
2024-05-09T09:16:59.860Z,19.70
2024-05-09T09:20:29.501Z,19.70
2024-05-09T09:24:02.613Z,19.80
2024-05-09T09:27:26.694Z,19.90
2024-05-09T09:30:50.638Z,19.90
2024-05-09T09:34:14.806Z,19.90
2024-05-09T09:37:38.804Z,20.00
2024-05-09T09:41:10.776Z,20.00
2024-05-09T09:44:39.461Z,20.00
2024-05-09T09:48:04.939Z,20.10
2024-05-09T09:51:26.776Z,20.10
2024-05-09T09:54:52.886Z,20.00
2024-05-09T09:58:20.966Z,20.00
2024-05-09T10:01:46.887Z,20.00
2024-05-09T10:05:11.149Z,20.00
2024-05-09T10:08:32.707Z,20.00
2024-05-09T10:12:00.200Z,20.10
2024-05-09T10:15:27.589Z,20.30
2024-05-09T10:18:48.913Z,20.60
2024-05-09T10:22:12.839Z,20.80
2024-05-09T10:25:33.863Z,20.90
2024-05-09T10:28:58.691Z,21.00
2024-05-09T10:32:25.017Z,20.80
2024-05-09T10:35:54.700Z,21.00
2024-05-09T10:39:19.305Z,21.00
2024-05-09T10:42:43.198Z,20.90
2024-05-09T10:46:08.008Z,20.90
2024-05-09T10:49:35.069Z,20.80
2024-05-09T10:52:58.586Z,20.80
2024-05-09T10:56:22.299Z,20.80
2024-05-09T10:59:46.109Z,20.60
2024-05-09T11:03:12.822Z,20.40
2024-05-09T11:06:39.684Z,20.50
2024-05-09T11:10:06.257Z,20.70
2024-05-09T11:13:28.940Z,20.70
2024-05-09T11:17:02.007Z,21.10
2024-05-09T11:20:29.703Z,21.30
2024-05-09T11:23:54.392Z,21.50
2024-05-09T11:27:18.356Z,21.30
2024-05-09T11:30:41.891Z,21.20
2024-05-09T11:34:05.837Z,21.30
2024-05-09T11:37:27.097Z,21.50
2024-05-09T11:40:54.715Z,21.50
2024-05-09T11:44:18.661Z,21.50
2024-05-09T11:47:40.025Z,21.60
2024-05-09T11:51:03.534Z,21.90
2024-05-09T11:54:27.435Z,22.00
2024-05-09T11:57:51.000Z,22.10
2024-05-09T12:01:14.846Z,22.10
2024-05-09T12:04:36.341Z,21.80
2024-05-09T12:08:00.324Z,21.80
2024-05-09T12:11:24.147Z,22.10
2024-05-09T12:14:50.566Z,22.50
2024-05-09T12:18:11.959Z,22.90
2024-05-09T12:21:35.848Z,23.30
2024-05-09T12:24:59.885Z,23.40
2024-05-09T12:28:21.734Z,23.20
2024-05-09T12:31:48.137Z,22.80
2024-05-09T12:35:11.998Z,23.00
2024-05-09T12:38:35.367Z,23.30
2024-05-09T12:41:56.195Z,23.40
2024-05-09T12:45:19.585Z,23.60
2024-05-09T12:48:43.887Z,24.00
2024-05-09T12:52:08.394Z,24.30
2024-05-09T12:55:33.998Z,24.70
2024-05-09T12:59:04.060Z,25.20
2024-05-09T13:02:27.431Z,25.40
2024-05-09T13:05:54.882Z,25.80
2024-05-09T13:09:18.947Z,26.10
2024-05-09T13:12:42.526Z,26.40
2024-05-09T13:16:07.056Z,26.30
2024-05-09T13:19:28.289Z,25.40
2024-05-09T13:22:54.876Z,24.40
2024-05-09T13:26:15.702Z,23.70
2024-05-09T13:29:42.796Z,23.70
2024-05-09T13:33:08.646Z,23.80
2024-05-09T13:36:32.897Z,23.80
2024-05-09T13:39:59.459Z,23.50
2024-05-09T13:43:24.002Z,23.30
2024-05-09T13:46:47.941Z,23.10
2024-05-09T13:50:20.159Z,22.90
2024-05-09T13:53:50.494Z,23.00
2024-05-09T13:57:16.865Z,22.60
2024-05-09T14:00:46.190Z,22.60
2024-05-09T14:04:12.655Z,22.80
2024-05-09T14:07:33.943Z,22.80
2024-05-09T14:10:57.535Z,22.80
2024-05-09T14:14:23.563Z,22.90
2024-05-09T14:17:47.032Z,23.00
2024-05-09T14:21:11.002Z,23.10
2024-05-09T14:24:34.593Z,23.00
2024-05-09T14:27:59.049Z,23.00
2024-05-09T14:31:25.503Z,23.00
2024-05-09T14:34:49.117Z,22.80
2024-05-09T14:38:10.668Z,22.70
2024-05-09T14:41:34.031Z,22.70
2024-05-09T14:44:57.442Z,22.90
2024-05-09T14:48:23.937Z,22.80
2024-05-09T14:51:48.236Z,22.50
2024-05-09T14:55:12.450Z,22.50
2024-05-09T14:58:33.614Z,22.40
2024-05-09T15:01:58.009Z,22.40
2024-05-09T15:05:22.105Z,22.10
2024-05-09T15:08:45.691Z,22.10
2024-05-09T15:12:09.398Z,21.90
2024-05-09T15:15:33.095Z,22.10
2024-05-09T15:18:54.439Z,22.30
2024-05-09T15:22:20.694Z,22.30
2024-05-09T15:25:44.778Z,22.20
2024-05-09T15:29:09.081Z,22.20
2024-05-09T15:32:32.871Z,22.20
2024-05-09T15:35:56.826Z,22.20
2024-05-09T15:39:20.674Z,21.90
2024-05-09T15:42:44.180Z,21.90
2024-05-09T15:46:05.964Z,21.70
2024-05-09T15:49:29.909Z,21.50
2024-05-09T15:52:53.814Z,21.40
2024-05-09T15:56:20.034Z,21.20
2024-05-09T15:59:41.315Z,21.00
2024-05-09T16:03:04.947Z,21.00
2024-05-09T16:06:28.791Z,20.90
2024-05-09T16:09:52.754Z,20.90
2024-05-09T16:13:19.969Z,20.70
2024-05-09T16:16:41.309Z,20.60
2024-05-09T16:20:09.109Z,20.70
2024-05-09T16:23:39.237Z,20.50
2024-05-09T16:27:02.747Z,20.50
2024-05-09T16:30:34.511Z,20.30
2024-05-09T16:33:59.291Z,20.30
2024-05-09T16:37:24.246Z,20.30
2024-05-09T16:40:48.941Z,20.30
2024-05-09T16:44:12.820Z,20.30
2024-05-09T16:47:38.983Z,20.10
2024-05-09T16:51:00.257Z,20.00
2024-05-09T16:54:24.160Z,20.00
2024-05-09T16:57:47.973Z,20.00
2024-05-09T17:01:13.536Z,19.90
2024-05-09T17:04:40.212Z,19.90
2024-05-09T17:08:01.406Z,19.70
2024-05-09T17:11:25.543Z,19.40
2024-05-09T17:14:49.475Z,19.40
2024-05-09T17:18:13.087Z,19.40
2024-05-09T17:21:39.485Z,19.50
2024-05-09T17:25:03.487Z,19.40
2024-05-09T17:28:24.787Z,19.40
2024-05-09T17:31:48.780Z,19.40
2024-05-09T17:35:12.200Z,19.20
2024-05-09T17:38:36.072Z,18.90
2024-05-09T17:41:59.639Z,19.10
2024-05-09T17:45:20.671Z,19.10
2024-05-09T17:48:44.793Z,19.10
2024-05-09T17:52:06.895Z,19.00
2024-05-09T17:55:33.322Z,19.00
2024-05-09T17:58:57.066Z,18.90
2024-05-09T18:02:21.026Z,18.80
2024-05-09T18:05:43.079Z,18.80
2024-05-09T18:09:08.574Z,18.80
2024-05-09T18:12:34.546Z,18.80
2024-05-09T18:15:55.849Z,18.70
2024-05-09T18:19:19.879Z,18.70
2024-05-09T18:22:43.535Z,18.50
2024-05-09T18:26:08.609Z,18.60
2024-05-09T18:29:35.167Z,18.50
2024-05-09T18:32:59.238Z,18.40
2024-05-09T18:36:23.210Z,18.30
2024-05-09T18:39:44.068Z,18.20
2024-05-09T18:43:09.317Z,18.10
2024-05-09T18:46:35.881Z,18.10
2024-05-09T18:49:56.855Z,18.10
2024-05-09T18:53:20.794Z,18.00
2024-05-09T18:56:44.590Z,18.10
2024-05-09T19:00:10.729Z,17.80
2024-05-09T19:03:39.493Z,17.80
2024-05-09T19:07:00.940Z,17.80
2024-05-09T19:10:28.838Z,17.80
2024-05-09T19:13:58.616Z,17.70
2024-05-09T19:17:22.261Z,17.60
2024-05-09T19:20:46.313Z,17.60
2024-05-09T19:24:10.055Z,17.50
2024-05-09T19:27:33.574Z,17.40
2024-05-09T19:30:54.761Z,17.40
2024-05-09T19:34:19.098Z,17.30
2024-05-09T19:37:45.495Z,17.40
2024-05-09T19:41:10.025Z,17.30
2024-05-09T19:44:35.398Z,17.30
2024-05-09T19:47:57.486Z,17.20
2024-05-09T19:51:21.377Z,17.20
2024-05-09T19:54:49.939Z,17.10
2024-05-09T19:58:12.302Z,16.90
2024-05-09T20:01:36.852Z,17.00
2024-05-09T20:05:02.160Z,17.00
2024-05-09T20:08:26.315Z,17.00
2024-05-09T20:11:49.745Z,17.00
2024-05-09T20:15:13.657Z,17.00
2024-05-09T20:18:34.697Z,17.00
2024-05-09T20:21:58.521Z,17.00
2024-05-09T20:25:19.813Z,16.90
2024-05-09T20:28:46.353Z,16.90
2024-05-09T20:32:10.864Z,16.90
2024-05-09T20:35:32.947Z,16.80
2024-05-09T20:38:56.786Z,16.80
2024-05-09T20:42:17.745Z,16.80
2024-05-09T20:45:43.786Z,16.80
2024-05-09T20:49:07.894Z,16.80
2024-05-09T20:52:28.773Z,16.70
2024-05-09T20:55:52.159Z,16.50
2024-05-09T20:59:15.682Z,16.60
2024-05-09T21:02:41.607Z,16.60
2024-05-09T21:06:05.537Z,16.60
2024-05-09T21:09:26.881Z,16.60
2024-05-09T21:12:50.855Z,16.60
2024-05-09T21:16:14.951Z,16.50
2024-05-09T21:19:41.593Z,16.50
2024-05-09T21:23:03.431Z,16.40
2024-05-09T21:26:27.447Z,16.50
2024-05-09T21:29:48.365Z,16.50
2024-05-09T21:33:14.299Z,16.60
2024-05-09T21:36:41.352Z,16.60
2024-05-09T21:40:11.259Z,16.50
2024-05-09T21:43:37.562Z,16.50
2024-05-09T21:46:58.614Z,16.50
2024-05-09T21:50:28.367Z,16.40
2024-05-09T21:54:01.921Z,16.40
2024-05-09T21:57:22.688Z,16.40
2024-05-09T22:00:46.784Z,16.30
2024-05-09T22:04:08.299Z,16.30
2024-05-09T22:07:32.301Z,16.30
2024-05-09T22:10:59.263Z,16.30
2024-05-09T22:14:23.263Z,16.10
2024-05-09T22:17:44.469Z,16.20
2024-05-09T22:21:08.603Z,16.20
2024-05-09T22:24:29.453Z,16.10
2024-05-09T22:27:55.580Z,16.10
2024-05-09T22:31:19.462Z,16.10
2024-05-09T22:34:40.705Z,16.10
2024-05-09T22:38:05.801Z,15.90
2024-05-09T22:41:27.139Z,15.90
2024-05-09T22:44:53.256Z,15.70
2024-05-09T22:48:14.392Z,15.60
2024-05-09T22:51:38.048Z,15.50
2024-05-09T22:54:59.858Z,15.60
2024-05-09T22:58:24.319Z,15.70
2024-05-09T23:01:48.480Z,15.80
2024-05-09T23:05:12.508Z,15.80
2024-05-09T23:08:33.591Z,15.80
2024-05-09T23:11:57.573Z,15.80
2024-05-09T23:15:18.916Z,15.80
2024-05-09T23:18:45.519Z,15.80
2024-05-09T23:22:09.326Z,15.70
2024-05-09T23:25:33.125Z,15.70
2024-05-09T23:28:54.528Z,15.70
2024-05-09T23:32:18.412Z,15.70
2024-05-09T23:35:45.905Z,15.60
2024-05-09T23:39:06.896Z,15.50
2024-05-09T23:42:30.402Z,15.40
2024-05-09T23:45:54.286Z,15.50
2024-05-09T23:49:18.263Z,15.50
2024-05-09T23:52:44.779Z,15.50
2024-05-09T23:56:09.325Z,15.50
2024-05-09T23:59:30.149Z,15.50
